Time;durP1;ratioP1;P1;durP2;ratioP2;P2;SDS_P1;SDS_P2;PMS_P1;PMS_P2;Temp;Humidity;BMP_temperature;BMP_pressure;BME280_temperature;BME280_humidity;BME280_pressure;Samples;Min_cycle;Max_cycle;Signal;HPM_P1;HPM_P2
2021/01/10 00:00:37;;;;;;;1999.90;999.90;;;0.30;99.90;;;;;;6218735;23;20020;-93
2021/01/10 00:03:05;;;;;;;1999.90;999.90;;;0.40;99.90;;;;;;6218250;23;20013;-94
2021/01/10 00:05:55;;;;;;;1999.90;999.90;;;0.40;99.90;;;;;;6218610;23;20067;-94
2021/01/10 00:08:36;;;;;;;1999.90;999.90;;;0.50;99.90;;;;;;6218684;23;20023;-94
2021/01/10 00:11:11;;;;;;;1999.90;999.90;;;0.50;99.90;;;;;;6219707;23;20024;-94
2021/01/10 00:13:40;;;;;;;1999.90;999.90;;;0.50;99.90;;;;;;6220368;23;20496;-94
2021/01/10 00:16:20;;;;;;;1999.90;999.90;;;0.50;99.90;;;;;;6219846;23;20023;-93
2021/01/10 00:18:49;;;;;;;1999.90;999.90;;;0.50;99.90;;;;;;6217817;23;20047;-93
2021/01/10 00:21:22;;;;;;;1999.90;999.90;;;0.50;99.90;;;;;;6217996;23;20340;-94
2021/01/10 00:23:55;;;;;;;1999.90;999.90;;;0.60;99.90;;;;;;6217425;23;20344;-93
2021/01/10 00:26:36;;;;;;;1999.90;999.90;;;0.60;99.90;;;;;;6217729;23;20016;-93
2021/01/10 00:29:17;;;;;;;1999.90;999.90;;;0.60;99.90;;;;;;6218024;23;20025;-94
2021/01/10 00:31:50;;;;;;;1999.90;999.90;;;0.70;99.90;;;;;;6217864;23;20404;-94
2021/01/10 00:34:25;;;;;;;1999.90;999.90;;;0.60;99.90;;;;;;6217988;23;20087;-94
2021/01/10 00:37:12;;;;;;;1999.90;999.90;;;0.60;99.90;;;;;;6217597;23;20444;-94
2021/01/10 00:40:10;;;;;;;1999.90;999.90;;;0.60;99.90;;;;;;6218970;23;20472;-93
2021/01/10 00:43:10;;;;;;;1999.90;999.90;;;0.70;99.90;;;;;;6217701;23;20023;-94
2021/01/10 00:45:53;;;;;;;1999.90;999.90;;;0.70;99.90;;;;;;6217593;23;20024;-93
2021/01/10 00:48:27;;;;;;;1999.90;999.90;;;0.60;99.90;;;;;;6217810;23;20099;-93
2021/01/10 00:51:05;;;;;;;1999.90;999.90;;;0.70;99.90;;;;;;6219118;23;20022;-94
2021/01/10 00:53:41;;;;;;;1999.90;999.90;;;0.60;99.90;;;;;;6217928;23;20043;-93
2021/01/10 00:59:07;;;;;;;1999.90;999.90;;;0.60;99.90;;;;;;6216236;23;20100;-95
2021/01/10 01:04:47;;;;;;;1999.90;999.90;;;0.60;99.90;;;;;;6215555;23;20016;-94
2021/01/10 01:07:16;;;;;;;;;;;0.60;99.90;;;;;;6217816;23;20028;-93
2021/01/10 01:09:48;;;;;;;1999.90;999.90;;;0.60;99.90;;;;;;6217704;23;19920;-93
2021/01/10 01:12:32;;;;;;;1999.90;999.90;;;0.60;99.90;;;;;;6217578;23;20440;-94
2021/01/10 01:15:06;;;;;;;1999.90;999.90;;;0.60;99.90;;;;;;6217441;23;20021;-94
2021/01/10 01:17:36;;;;;;;1999.90;999.90;;;0.60;99.90;;;;;;6217423;23;20021;-94
2021/01/10 01:20:06;;;;;;;1999.90;999.90;;;0.60;99.90;;;;;;6216687;23;20024;-93
2021/01/10 01:22:38;;;;;;;1999.90;999.90;;;0.60;99.90;;;;;;6216760;23;20460;-93
2021/01/10 01:25:09;;;;;;;1999.90;999.90;;;0.70;99.90;;;;;;6217955;23;20044;-94
2021/01/10 01:27:45;;;;;;;1999.90;999.90;;;0.70;99.90;;;;;;6217922;23;20070;-93
2021/01/10 01:30:14;;;;;;;1999.90;999.90;;;0.80;99.90;;;;;;6216833;23;20460;-94
2021/01/10 01:32:46;;;;;;;1999.90;999.90;;;0.70;99.90;;;;;;6217134;23;20013;-94
2021/01/10 01:35:19;;;;;;;1999.90;999.90;;;0.80;99.90;;;;;;6216893;23;20017;-94
2021/01/10 01:37:52;;;;;;;1999.90;999.90;;;0.80;99.90;;;;;;6217263;23;20023;-93
2021/01/10 01:40:22;;;;;;;1999.90;999.90;;;0.80;99.90;;;;;;6217431;23;20092;-93
2021/01/10 01:42:51;;;;;;;1999.90;999.90;;;0.90;99.90;;;;;;6217325;23;20016;-94
2021/01/10 01:45:21;;;;;;;1999.90;999.90;;;0.90;99.90;;;;;;6216838;23;20016;-94
2021/01/10 01:47:52;;;;;;;1999.90;999.90;;;0.90;99.90;;;;;;6217381;23;20020;-94
2021/01/10 01:50:19;;;;;;;1999.90;999.90;;;0.90;99.90;;;;;;6216834;23;20020;-94
2021/01/10 01:52:48;;;;;;;1999.90;999.90;;;0.90;99.90;;;;;;6217864;23;20079;-94
2021/01/10 01:55:16;;;;;;;1999.90;999.90;;;0.90;99.90;;;;;;6217089;23;20391;-93
2021/01/10 01:57:56;;;;;;;1999.90;999.90;;;1.00;99.90;;;;;;6217280;23;20028;-94
2021/01/10 02:00:29;;;;;;;1999.90;999.90;;;1.00;99.90;;;;;;6217253;23;20099;-94
2021/01/10 02:02:56;;;;;;;1999.90;999.90;;;1.00;99.90;;;;;;6217088;23;20017;-94
2021/01/10 02:05:27;;;;;;;1999.90;999.90;;;1.00;99.90;;;;;;6217138;23;20095;-94
2021/01/10 02:08:02;;;;;;;1999.90;999.90;;;1.00;99.90;;;;;;6217544;23;20440;-93
2021/01/10 02:10:42;;;;;;;1999.90;999.90;;;1.00;99.90;;;;;;6217073;23;20455;-93
2021/01/10 02:13:25;;;;;;;1999.90;999.90;;;1.00;99.90;;;;;;6216950;23;20091;-94
2021/01/10 02:15:53;;;;;;;1999.90;999.90;;;1.00;99.90;;;;;;6216282;23;20375;-94
2021/01/10 02:18:23;;;;;;;1999.90;999.90;;;1.10;99.90;;;;;;6216315;23;20024;-94
2021/01/10 02:23:53;;;;;;;1999.90;999.90;;;1.00;99.90;;;;;;6215122;23;20020;-94
2021/01/10 02:26:35;;;;;;;1999.90;999.90;;;1.00;99.90;;;;;;6216779;23;20027;-93
2021/01/10 02:29:12;;;;;;;1999.90;999.90;;;1.00;99.90;;;;;;6217014;23;20492;-94
2021/01/10 02:31:54;;;;;;;1999.90;999.90;;;1.00;99.90;;;;;;6218506;23;20448;-93
2021/01/10 02:34:26;;;;;;;1999.90;999.90;;;1.00;99.90;;;;;;6218836;23;20017;-94
2021/01/10 02:37:24;;;;;;;1999.90;999.90;;;1.00;99.90;;;;;;6219486;23;20042;-94
2021/01/10 02:40:29;;;;;;;1999.90;999.90;;;1.00;99.90;;;;;;6213948;23;20020;-93
2021/01/10 02:43:21;;;;;;;1999.90;999.90;;;1.00;99.90;;;;;;6218534;23;20033;-93
2021/01/10 02:46:02;;;;;;;1999.90;999.90;;;1.00;99.90;;;;;;6218692;23;20023;-94
2021/01/10 02:48:36;;;;;;;1999.90;999.90;;;1.00;99.90;;;;;;6218635;23;20051;-93
2021/01/10 02:51:17;;;;;;;1999.90;999.90;;;1.00;99.90;;;;;;6219862;23;20466;-94
2021/01/10 02:53:55;;;;;;;1999.90;999.90;;;1.10;99.90;;;;;;6221270;23;20372;-94
2021/01/10 02:56:32;;;;;;;1999.90;999.90;;;1.10;99.90;;;;;;6218778;23;20021;-94
2021/01/10 02:59:04;;;;;;;1999.90;999.90;;;1.10;99.90;;;;;;6218672;23;20345;-93
2021/01/10 03:01:33;;;;;;;1999.90;999.90;;;1.20;99.90;;;;;;6219716;23;20317;-93
2021/01/10 03:04:04;;;;;;;1999.90;999.90;;;1.20;99.90;;;;;;6218330;23;20468;-94
2021/01/10 03:06:32;;;;;;;1999.90;999.90;;;1.20;99.90;;;;;;6218789;23;20036;-94
2021/01/10 03:09:03;;;;;;;1999.90;999.90;;;1.20;99.90;;;;;;6218107;23;20537;-94
2021/01/10 03:11:34;;;;;;;1999.90;999.90;;;1.30;99.90;;;;;;6218561;23;20016;-94
2021/01/10 03:14:03;;;;;;;1999.90;999.90;;;1.30;99.90;;;;;;6218844;23;20429;-94
2021/01/10 03:16:32;;;;;;;1999.90;999.90;;;1.30;99.90;;;;;;6218273;23;20024;-93
2021/01/10 03:19:01;;;;;;;1999.90;999.90;;;1.30;99.90;;;;;;6219422;23;20024;-93
2021/01/10 03:21:28;;;;;;;1999.90;999.90;;;1.30;99.90;;;;;;6218603;23;20021;-94
2021/01/10 03:23:56;;;;;;;1999.90;999.90;;;1.30;99.90;;;;;;6218366;23;20039;-93
2021/01/10 03:26:27;;;;;;;1999.90;999.90;;;1.30;99.90;;;;;;6219513;23;20028;-93
2021/01/10 03:28:55;;;;;;;1999.90;999.90;;;1.30;99.90;;;;;;6219713;23;20119;-94
2021/01/10 03:31:24;;;;;;;1999.90;999.90;;;1.30;99.90;;;;;;6219270;23;20405;-93
2021/01/10 03:33:52;;;;;;;1999.90;999.90;;;1.30;99.90;;;;;;6218736;23;20500;-94
2021/01/10 03:36:22;;;;;;;1999.90;999.90;;;1.30;99.90;;;;;;6220149;23;20456;-93
2021/01/10 03:38:55;;;;;;;1999.90;999.90;;;1.30;99.90;;;;;;6220545;23;20020;-94
2021/01/10 03:41:30;;;;;;;1999.90;999.90;;;1.20;99.90;;;;;;6218179;23;20017;-94
2021/01/10 03:44:04;;;;;;;1999.90;999.90;;;1.30;99.90;;;;;;6218304;23;20096;-93
2021/01/10 03:46:33;;;;;;;1999.90;999.90;;;1.20;99.90;;;;;;6218413;23;20021;-94
2021/01/10 03:49:11;;;;;;;1999.90;999.90;;;1.20;99.90;;;;;;6219275;23;20421;-93
2021/01/10 03:51:45;;;;;;;1999.90;999.90;;;1.20;99.90;;;;;;6218278;23;20425;-93
2021/01/10 03:54:21;;;;;;;1999.90;999.90;;;1.20;99.90;;;;;;6218554;23;20344;-93
2021/01/10 03:56:52;;;;;;;1999.90;999.90;;;1.10;99.90;;;;;;6218142;23;20044;-94
2021/01/10 03:59:23;;;;;;;1999.90;999.90;;;1.10;99.90;;;;;;6217944;23;20075;-93
2021/01/10 04:01:55;;;;;;;1999.90;999.90;;;1.10;99.90;;;;;;6218283;23;20086;-93
2021/01/10 04:04:27;;;;;;;1999.90;999.90;;;1.10;99.90;;;;;;6218153;23;20016;-93
2021/01/10 04:06:58;;;;;;;1999.90;999.90;;;1.10;99.90;;;;;;6218675;23;20396;-93
2021/01/10 04:09:41;;;;;;;1999.90;999.90;;;1.00;99.90;;;;;;6218213;23;20017;-93
2021/01/10 04:12:14;;;;;;;1999.90;999.90;;;1.00;99.90;;;;;;6217778;23;20023;-93
2021/01/10 04:14:56;;;;;;;1999.90;999.90;;;1.00;99.90;;;;;;6218434;23;20432;-93
2021/01/10 04:17:26;;;;;;;1999.90;999.90;;;0.90;99.90;;;;;;6218620;23;20094;-93
2021/01/10 04:20:06;;;;;;;1999.90;999.90;;;0.90;99.90;;;;;;6217902;23;20340;-93
2021/01/10 04:22:45;;;;;;;1999.90;999.90;;;0.80;99.90;;;;;;6217976;23;20020;-93
2021/01/10 04:25:45;;;;;;;1999.90;999.90;;;0.80;99.90;;;;;;6220937;23;20079;-93
2021/01/10 04:28:42;;;;;;;1999.90;999.90;;;0.80;99.90;;;;;;6226183;23;20021;-93
2021/01/10 04:31:52;;;;;;;1999.90;999.90;;;0.70;99.90;;;;;;6232184;23;20079;-92
2021/01/10 04:34:34;;;;;;;1999.90;999.90;;;0.70;99.90;;;;;;6229623;23;20017;-93
2021/01/10 04:37:18;;;;;;;1999.90;999.90;;;0.70;99.90;;;;;;6219846;23;20024;-93
2021/01/10 04:40:02;;;;;;;1999.90;999.90;;;0.70;99.90;;;;;;6218033;23;20020;-92
2021/01/10 04:42:43;;;;;;;;;;;0.60;99.90;;;;;;6218322;23;20029;-93
2021/01/10 04:45:21;;;;;;;1999.90;999.90;;;0.60;99.90;;;;;;6217643;23;19966;-93
2021/01/10 04:48:21;;;;;;;1999.90;999.90;;;0.60;99.90;;;;;;6217256;23;20448;-94
2021/01/10 04:51:26;;;;;;;1999.90;999.90;;;0.60;99.90;;;;;;6217551;23;20020;-94
2021/01/10 04:54:09;;;;;;;1999.90;999.90;;;0.60;99.90;;;;;;6217610;23;20023;-94
2021/01/10 04:57:21;;;;;;;1999.90;999.90;;;0.50;99.90;;;;;;6217252;23;20017;-93
2021/01/10 05:00:14;;;;;;;1999.90;999.90;;;0.50;99.90;;;;;;6191035;23;20020;-94
2021/01/10 05:03:16;;;;;;;1999.90;999.90;;;0.50;99.90;;;;;;6217808;23;20036;-92
2021/01/10 05:05:50;;;;;;;1999.90;999.90;;;0.50;99.90;;;;;;6217367;23;20021;-93
2021/01/10 05:08:46;;;;;;;1999.90;999.90;;;0.50;99.90;;;;;;6217781;23;20028;-92
2021/01/10 05:11:19;;;;;;;1999.90;999.90;;;0.50;99.90;;;;;;6217342;23;20107;-93
2021/01/10 05:13:56;;;;;;;1999.90;999.90;;;0.50;99.90;;;;;;6216911;23;20016;-92
2021/01/10 05:16:45;;;;;;;1999.90;999.90;;;0.50;99.90;;;;;;6217942;23;20459;-93
2021/01/10 05:19:30;;;;;;;1999.90;999.90;;;0.50;99.90;;;;;;6217203;23;20075;-93
2021/01/10 05:22:13;;;;;;;1999.90;999.90;;;0.50;99.90;;;;;;6217015;23;20025;-93
2021/01/10 05:24:47;;;;;;;1999.90;999.90;;;0.50;99.90;;;;;;6217257;23;20091;-93
2021/01/10 05:27:20;;;;;;;1999.90;999.90;;;0.60;99.90;;;;;;6217497;23;20021;-93
2021/01/10 05:29:53;;;;;;;1999.90;999.90;;;0.50;99.90;;;;;;6217109;23;20352;-93
2021/01/10 05:32:22;;;;;;;1999.90;999.90;;;0.60;99.90;;;;;;6217374;23;20017;-93
2021/01/10 05:35:09;;;;;;;1999.90;999.90;;;0.60;99.90;;;;;;6217000;23;20091;-92
2021/01/10 05:37:57;;;;;;;1999.90;999.90;;;0.70;99.90;;;;;;6218162;23;20016;-93
2021/01/10 05:40:34;;;;;;;1999.90;999.90;;;0.60;99.90;;;;;;6220146;23;20021;-93
2021/01/10 05:43:12;;;;;;;1999.90;999.90;;;0.60;99.90;;;;;;6220777;23;20023;-94
2021/01/10 05:45:39;;;;;;;1999.90;999.90;;;0.70;99.90;;;;;;6219428;23;20020;-94
2021/01/10 05:48:24;;;;;;;1999.90;999.90;;;0.60;99.90;;;;;;6217900;23;20081;-92
2021/01/10 05:51:07;;;;;;;1999.90;999.90;;;0.60;99.90;;;;;;6217043;23;20108;-93
2021/01/10 05:53:57;;;;;;;1999.90;999.90;;;0.70;99.90;;;;;;6217426;23;20027;-93
2021/01/10 05:56:30;;;;;;;1999.90;999.90;;;0.70;99.90;;;;;;6218766;23;20095;-92
2021/01/10 05:59:01;;;;;;;1999.90;999.90;;;0.70;99.90;;;;;;6218098;23;20017;-93
2021/01/10 06:01:39;;;;;;;1999.90;999.90;;;0.60;99.90;;;;;;6217200;23;20059;-94
2021/01/10 06:04:22;;;;;;;1999.90;999.90;;;0.60;99.90;;;;;;6217301;23;20017;-94
2021/01/10 06:06:56;;;;;;;1999.90;999.90;;;0.60;99.90;;;;;;6217187;23;20467;-93
2021/01/10 06:09:47;;;;;;;1999.90;999.90;;;0.60;99.90;;;;;;6217642;23;20016;-93
2021/01/10 06:12:22;;;;;;;1999.90;999.90;;;0.60;99.90;;;;;;6216829;23;20020;-93
2021/01/10 06:15:22;;;;;;;1999.90;999.90;;;0.60;99.90;;;;;;6217594;23;20016;-93
2021/01/10 06:18:01;;;;;;;;;;;0.60;99.90;;;;;;6217371;23;20024;-94
2021/01/10 06:20:34;;;;;;;1999.90;999.90;;;0.60;99.90;;;;;;6217833;23;19916;-93
2021/01/10 06:23:10;;;;;;;1999.90;999.90;;;0.50;99.90;;;;;;6217233;23;20122;-92
2021/01/10 06:25:45;;;;;;;1999.90;999.90;;;0.50;99.90;;;;;;6217565;23;20048;-93
2021/01/10 06:28:20;;;;;;;1999.90;999.90;;;0.50;99.90;;;;;;6217351;23;20017;-92
2021/01/10 06:30:55;;;;;;;1999.90;999.90;;;0.50;99.90;;;;;;6216808;23;20020;-92
2021/01/10 06:33:31;;;;;;;1999.90;999.90;;;0.50;99.90;;;;;;6217815;23;20048;-92
2021/01/10 06:36:03;;;;;;;1999.90;999.90;;;0.50;99.90;;;;;;6217335;23;20479;-93
2021/01/10 06:38:35;;;;;;;1999.90;999.90;;;0.40;99.90;;;;;;6217635;23;20028;-92
2021/01/10 06:41:54;;;;;;;;;;;;;;;;;;;;;
2021/01/10 06:44:33;;;;;;;1999.90;999.90;;;0.50;99.90;;;;;;6217249;23;20071;-92
2021/01/10 06:47:04;;;;;;;1999.90;999.90;;;0.40;99.90;;;;;;6216884;23;20016;-93
2021/01/10 06:49:33;;;;;;;1999.90;999.90;;;0.40;99.90;;;;;;6217598;23;20316;-92
2021/01/10 06:52:08;;;;;;;1999.90;999.90;;;0.40;99.90;;;;;;6218066;23;20043;-93
2021/01/10 06:54:41;;;;;;;1999.90;999.90;;;0.50;99.90;;;;;;6216622;23;20016;-93
2021/01/10 06:57:09;;;;;;;1999.90;999.90;;;0.40;99.90;;;;;;6217464;23;20436;-92
2021/01/10 07:00:00;;;;;;;1999.90;999.90;;;0.50;99.90;;;;;;6217779;23;20100;-92
2021/01/10 07:02:28;;;;;;;1999.90;999.90;;;0.50;99.90;;;;;;6217451;23;20020;-92
2021/01/10 07:05:03;;;;;;;1999.90;999.90;;;0.50;99.90;;;;;;6216680;23;20012;-92
2021/01/10 07:07:39;;;;;;;;;;;0.60;99.90;;;;;;6218148;23;20416;-92
2021/01/10 07:10:27;;;;;;;1999.90;999.90;;;0.60;99.90;;;;;;6216768;23;19939;-93
2021/01/10 07:13:24;;;;;;;1999.90;999.90;;;0.60;99.90;;;;;;6217790;23;20100;-92
2021/01/10 07:16:17;;;;;;;1999.90;999.90;;;0.60;99.90;;;;;;6216740;23;20036;-92
2021/01/10 07:18:52;;;;;;;1999.90;999.90;;;0.60;99.90;;;;;;6218654;23;20026;-92
2021/01/10 07:21:32;;;;;;;1999.90;999.90;;;0.60;99.90;;;;;;6219167;23;20433;-92
2021/01/10 07:24:32;;;;;;;1999.90;999.90;;;0.60;99.90;;;;;;6218450;23;20440;-92
2021/01/10 07:27:02;;;;;;;1999.90;999.90;;;0.60;99.90;;;;;;6218829;23;20332;-92
2021/01/10 07:29:33;;;;;;;1999.90;999.90;;;0.60;99.90;;;;;;6219616;23;20028;-92
2021/01/10 07:32:09;;;;;;;1999.90;999.90;;;0.60;99.90;;;;;;6219789;23;20017;-92
2021/01/10 07:34:57;;;;;;;1999.90;999.90;;;0.60;99.90;;;;;;6224055;23;20017;-92
2021/01/10 07:37:29;;;;;;;1999.90;999.90;;;0.70;99.90;;;;;;6222295;23;20086;-92
2021/01/10 07:39:59;;;;;;;1999.90;999.90;;;0.70;99.90;;;;;;6218701;23;20087;-93
2021/01/10 07:42:28;;;;;;;1999.90;999.90;;;0.70;99.90;;;;;;6218991;23;20024;-92
2021/01/10 07:45:00;;;;;;;1999.90;999.90;;;0.80;99.90;;;;;;6218792;23;20027;-93
2021/01/10 07:47:48;;;;;;;1999.90;999.90;;;0.70;99.90;;;;;;6218540;23;20047;-92
2021/01/10 07:50:24;;;;;;;1999.90;999.90;;;0.80;99.90;;;;;;6219174;23;20021;-93
2021/01/10 07:52:56;;;;;;;1999.90;999.90;;;0.80;99.90;;;;;;6218963;23;20491;-92
2021/01/10 07:55:26;;;;;;;1999.90;999.90;;;0.80;99.90;;;;;;6218936;23;20045;-94
2021/01/10 07:58:18;;;;;;;1999.90;999.90;;;0.90;99.90;;;;;;6218323;23;20028;-94
2021/01/10 08:00:54;;;;;;;1999.90;999.90;;;0.90;99.90;;;;;;6203402;23;20332;-94
2021/01/10 08:03:24;;;;;;;1999.90;999.90;;;0.90;99.90;;;;;;6218636;23;20071;-94
2021/01/10 08:06:03;;;;;;;1999.90;999.90;;;0.90;99.90;;;;;;6218270;23;20017;-93
2021/01/10 08:08:42;;;;;;;1999.90;999.90;;;1.00;99.90;;;;;;6218604;23;20016;-95
2021/01/10 08:11:09;;;;;;;1999.90;999.90;;;1.00;99.90;;;;;;6219233;23;20047;-94
2021/01/10 08:13:38;;;;;;;1999.90;999.90;;;1.10;99.90;;;;;;6218484;23;20021;-94
2021/01/10 08:16:09;;;;;;;1999.90;999.90;;;1.10;99.90;;;;;;6218762;23;20289;-95
2021/01/10 08:18:39;;;;;;;1999.90;999.90;;;1.10;99.90;;;;;;6217951;23;20025;-93
2021/01/10 08:21:08;;;;;;;1999.90;999.90;;;1.20;99.90;;;;;;6219370;23;20467;-94
2021/01/10 08:23:36;;;;;;;1999.90;999.90;;;1.20;99.90;;;;;;6218181;23;20019;-94
2021/01/10 08:26:06;;;;;;;1999.90;999.90;;;1.20;99.90;;;;;;6218731;23;20021;-95
2021/01/10 08:28:40;;;;;;;1999.90;999.90;;;1.20;99.90;;;;;;6218664;23;20340;-94
2021/01/10 08:31:09;;;;;;;1999.90;999.90;;;1.20;99.90;;;;;;6218537;23;20024;-94
2021/01/10 08:33:38;;;;;;;1999.90;999.90;;;1.30;99.90;;;;;;6217992;23;20044;-94
2021/01/10 08:36:19;;;;;;;1999.90;999.90;;;1.30;99.90;;;;;;6218421;23;20020;-94
2021/01/10 08:38:48;;;;;;;1999.90;999.90;;;1.30;99.90;;;;;;6219507;23;20020;-94
2021/01/10 08:41:30;;;;;;;1999.90;999.90;;;1.30;99.90;;;;;;6219777;23;20047;-94
2021/01/10 08:43:59;;;;;;;1999.90;999.90;;;1.30;99.90;;;;;;6218981;23;20019;-94
2021/01/10 08:46:29;;;;;;;1999.90;999.90;;;1.30;99.90;;;;;;6218228;23;20091;-95
2021/01/10 08:48:57;;;;;;;1999.90;999.90;;;1.40;99.90;;;;;;6220524;23;20371;-94
2021/01/10 08:51:32;;;;;;;1999.90;999.90;;;1.40;99.90;;;;;;6222737;23;20040;-94
2021/01/10 08:54:02;;;;;;;1999.90;999.90;;;1.40;99.90;;;;;;6222700;23;20016;-95
2021/01/10 08:56:32;;;;;;;1999.90;999.90;;;1.40;99.90;;;;;;6217765;23;20020;-96
2021/01/10 08:58:59;;;;;;;1999.90;999.90;;;1.40;99.90;;;;;;6217129;23;20027;-94
2021/01/10 09:01:27;;;;;;;1999.90;999.90;;;1.40;99.90;;;;;;6217759;23;20324;-95
2021/01/10 09:04:00;;;;;;;1999.90;999.90;;;1.40;99.90;;;;;;6218034;23;20320;-94
2021/01/10 09:06:46;;;;;;;1999.90;999.90;;;1.50;99.90;;;;;;6218359;23;20017;-94
2021/01/10 09:09:27;;;;;;;1999.90;999.90;;;1.40;99.90;;;;;;6217553;23;20047;-95
2021/01/10 09:12:02;;;;;;;1999.90;999.90;;;1.40;99.90;;;;;;6218274;23;20028;-94
2021/01/10 09:14:35;;;;;;;1999.90;999.90;;;1.40;99.90;;;;;;6217739;23;20043;-95
2021/01/10 09:17:05;;;;;;;1999.90;999.90;;;1.50;99.90;;;;;;6217664;23;20049;-94
2021/01/10 09:19:34;;;;;;;1999.90;999.90;;;1.50;99.90;;;;;;6216944;23;20036;-94
2021/01/10 09:22:03;;;;;;;1999.90;999.90;;;1.50;99.90;;;;;;6217715;23;20024;-93
2021/01/10 09:24:34;;;;;;;1999.90;999.90;;;1.50;99.90;;;;;;6219112;23;20019;-96
2021/01/10 09:27:10;;;;;;;1999.90;999.90;;;1.50;99.90;;;;;;6218498;23;20071;-94
2021/01/10 09:29:37;;;;;;;1999.90;999.90;;;1.50;99.90;;;;;;6218600;23;20020;-94
2021/01/10 09:32:06;;;;;;;1999.90;999.90;;;1.60;99.90;;;;;;6218631;23;20029;-94
2021/01/10 09:34:34;;;;;;;1999.90;999.90;;;1.60;99.90;;;;;;6217650;23;20019;-95
2021/01/10 09:37:04;;;;;;;1999.90;999.90;;;1.60;99.90;;;;;;6217402;23;20448;-94
2021/01/10 09:39:38;;;;;;;1999.90;999.90;;;1.70;99.90;;;;;;6217635;23;20016;-94
2021/01/10 09:42:06;;;;;;;1999.90;999.90;;;1.70;99.90;;;;;;6217475;23;20071;-94
2021/01/10 09:44:34;;;;;;;1999.90;999.90;;;1.70;99.90;;;;;;6217038;23;20012;-95
2021/01/10 09:47:02;;;;;;;1999.90;999.90;;;1.70;99.90;;;;;;6217496;23;20016;-94
2021/01/10 09:49:35;;;;;;;1999.90;999.90;;;1.60;99.90;;;;;;6217411;23;20513;-94
2021/01/10 09:52:06;;;;;;;1999.90;999.90;;;1.70;99.90;;;;;;6217688;23;20028;-95
2021/01/10 09:54:35;;;;;;;1999.90;999.90;;;1.80;99.90;;;;;;6217697;23;20428;-95
2021/01/10 09:57:16;;;;;;;1999.90;999.90;;;1.80;99.90;;;;;;6217433;23;20432;-95
2021/01/10 09:59:45;;;;;;;1999.90;999.90;;;1.90;99.90;;;;;;6218259;23;20095;-95
2021/01/10 10:02:20;;;;;;;1999.90;999.90;;;1.90;99.90;;;;;;6216925;23;20054;-95
2021/01/10 10:04:50;;;;;;;1999.90;999.90;;;1.90;99.90;;;;;;6217983;23;20067;-96
2021/01/10 10:07:32;;;;;;;1999.90;999.90;;;1.90;99.90;;;;;;6217200;23;20074;-96
2021/01/10 10:10:01;;;;;;;1999.90;999.90;;;2.00;99.90;;;;;;6217362;23;20017;-95
2021/01/10 10:12:28;;;;;;;1999.90;999.90;;;2.00;99.90;;;;;;6217872;23;20072;-96
2021/01/10 10:14:59;;;;;;;1999.90;999.90;;;2.00;99.90;;;;;;6217562;23;20023;-96
2021/01/10 10:17:28;;;;;;;1999.90;999.90;;;2.10;99.90;;;;;;6217613;23;20079;-95
2021/01/10 10:19:58;;;;;;;1999.90;999.90;;;2.10;99.90;;;;;;6217463;23;20044;-95
2021/01/10 10:22:31;;;;;;;1999.90;999.90;;;2.20;99.90;;;;;;6217829;23;20017;-96
2021/01/10 10:25:00;;;;;;;1999.90;999.90;;;2.20;99.90;;;;;;6217291;23;20440;-95
2021/01/10 10:27:29;;;;;;;1999.90;999.90;;;2.30;99.90;;;;;;6217933;23;20293;-95
2021/01/10 10:29:57;;;;;;;1999.90;999.90;;;2.30;99.90;;;;;;6217199;23;20038;-95
2021/01/10 10:32:27;;;;;;;1999.90;999.90;;;2.40;99.90;;;;;;6217300;23;20107;-95
2021/01/10 10:34:55;;;;;;;1999.90;999.90;;;2.40;99.90;;;;;;6217518;23;20047;-95
2021/01/10 10:37:23;;;;;;;1999.90;999.90;;;2.40;99.90;;;;;;6217541;23;20023;-96
2021/01/10 10:39:51;;;;;;;1999.90;999.90;;;2.40;99.90;;;;;;6218112;23;20036;-95
2021/01/10 10:42:19;;;;;;;1999.90;999.90;;;2.50;99.90;;;;;;6217424;23;20017;-95
2021/01/10 10:44:46;;;;;;;1999.90;999.90;;;2.60;99.90;;;;;;6217321;23;20012;-95
2021/01/10 10:47:15;;;;;;;1999.90;999.90;;;2.60;99.90;;;;;;6219623;23;20027;-96
2021/01/10 10:49:46;;;;;;;1999.90;999.90;;;2.60;99.90;;;;;;6219705;23;20433;-95
2021/01/10 10:52:14;;;;;;;1999.90;999.90;;;2.70;99.90;;;;;;6227066;23;20020;-95
2021/01/10 10:54:42;;;;;;;1999.90;999.90;;;2.70;99.90;;;;;;6237787;23;20016;-95
2021/01/10 10:57:14;;;;;;;1999.90;999.90;;;2.80;99.90;;;;;;6238244;23;20024;-96
2021/01/10 10:59:41;;;;;;;1999.90;999.90;;;2.80;99.90;;;;;;6225426;23;20024;-95
2021/01/10 11:02:10;;;;;;;1999.90;999.90;;;2.90;99.90;;;;;;6219915;23;20442;-96
2021/01/10 11:04:42;;;;;;;1999.90;999.90;;;3.00;99.90;;;;;;6220084;23;20071;-95
2021/01/10 11:07:12;;;;;;;1999.90;999.90;;;3.00;99.90;;;;;;6219437;23;20036;-96
2021/01/10 11:09:42;;;;;;;1999.90;999.90;;;3.10;99.90;;;;;;6220186;23;20020;-96
2021/01/10 11:12:12;;;;;;;1999.90;999.90;;;3.10;99.90;;;;;;6219754;23;20171;-96
2021/01/10 11:14:42;;;;;;;1999.90;999.90;;;3.20;99.90;;;;;;6219074;23;20030;-95
2021/01/10 11:17:11;;;;;;;1999.90;999.90;;;3.20;99.90;;;;;;6220970;23;20020;-96
2021/01/10 11:19:40;;;;;;;1999.90;999.90;;;3.30;99.90;;;;;;6223295;23;20079;-96
2021/01/10 11:22:08;;;;;;;1999.90;999.90;;;3.30;99.90;;;;;;6225039;23;20364;-96
2021/01/10 11:24:36;;;;;;;1999.90;999.90;;;3.30;99.90;;;;;;6221655;23;20308;-96
2021/01/10 11:27:05;;;;;;;1999.90;999.90;;;3.30;99.90;;;;;;6219727;23;20017;-95
2021/01/10 11:29:36;;;;;;;1999.90;999.90;;;3.40;99.90;;;;;;6218384;23;20020;-94
2021/01/10 11:32:04;;;;;;;1999.90;999.90;;;3.40;99.90;;;;;;6218837;23;20035;-94
2021/01/10 11:34:31;;;;;;;1999.90;999.90;;;3.50;99.90;;;;;;6217852;23;20013;-94
2021/01/10 11:36:59;;;;;;;1999.90;999.90;;;3.60;99.90;;;;;;6218549;23;20343;-94
2021/01/10 11:39:27;;;;;;;1999.90;999.90;;;3.60;99.90;;;;;;6218158;23;20048;-93
2021/01/10 11:41:57;;;;;;;1999.90;999.90;;;3.70;99.90;;;;;;6217997;23;20017;-94
2021/01/10 11:44:26;;;;;;;1999.90;999.90;;;3.70;99.90;;;;;;6219341;23;20027;-95
2021/01/10 11:46:56;;;;;;;1999.90;999.90;;;3.70;99.90;;;;;;6218124;23;20044;-94
2021/01/10 11:49:28;;;;;;;1999.90;999.90;;;3.80;99.90;;;;;;6218143;23;20024;-95
2021/01/10 11:51:59;;;;;;;1999.90;999.90;;;3.90;99.90;;;;;;6218678;23;20072;-91
2021/01/10 11:54:27;;;;;;;1999.90;999.90;;;3.90;99.90;;;;;;6218325;23;20096;-91
2021/01/10 11:56:54;;;;;;;1999.90;999.90;;;3.90;99.90;;;;;;6218385;23;20027;-92
2021/01/10 11:59:21;;;;;;;1999.90;999.90;;;3.90;99.90;;;;;;6219110;23;20020;-91
2021/01/10 12:01:50;;;;;;;1999.90;999.90;;;4.00;99.90;;;;;;6222545;23;20032;-92
2021/01/10 12:04:19;;;;;;;1999.90;999.90;;;4.00;99.90;;;;;;6220112;23;20019;-91
2021/01/10 12:06:46;;;;;;;1999.90;999.90;;;4.00;99.90;;;;;;6231966;23;20021;-91
2021/01/10 12:09:14;;;;;;;1999.90;999.90;;;4.10;99.90;;;;;;6231924;23;20025;-92
2021/01/10 12:11:42;;;;;;;1999.90;999.90;;;4.20;99.90;;;;;;6231984;23;20047;-92
2021/01/10 12:14:09;;;;;;;1999.90;999.90;;;4.30;99.90;;;;;;6228450;23;20458;-91
2021/01/10 12:16:37;;;;;;;1999.90;999.90;;;4.30;99.90;;;;;;6217771;23;20028;-92
2021/01/10 12:19:07;;;;;;;1999.90;999.90;;;4.20;99.90;;;;;;6217850;23;20135;-92
2021/01/10 12:21:45;;;;;;;1999.90;999.90;;;4.30;99.90;;;;;;6218169;23;20103;-92
2021/01/10 12:24:12;;;;;;;1999.90;999.90;;;4.40;99.90;;;;;;6217687;23;20012;-92
2021/01/10 12:26:40;;;;;;;1999.90;999.90;;;4.40;99.90;;;;;;6217994;23;20044;-91
2021/01/10 12:29:07;;;;;;;1999.90;999.90;;;4.40;99.90;;;;;;6217765;23;20024;-92
2021/01/10 12:31:34;;;;;;;1999.90;999.90;;;4.40;99.90;;;;;;6217386;23;20106;-92
2021/01/10 12:34:02;;;;;;;1999.90;999.90;;;4.50;99.90;;;;;;6218435;23;20012;-91
2021/01/10 12:36:32;;;;;;;1999.90;999.90;;;4.50;99.90;;;;;;6218346;23;20047;-91
2021/01/10 12:39:00;;;;;;;1999.90;999.90;;;4.50;99.90;;;;;;6217583;23;20491;-91
2021/01/10 12:41:27;;;;;;;1999.90;999.90;;;4.50;99.90;;;;;;6217452;23;20021;-92
2021/01/10 12:43:55;;;;;;;1999.90;999.90;;;4.50;99.90;;;;;;6217256;23;20031;-92
2021/01/10 12:46:29;;;;;;;1999.90;999.90;;;4.50;99.90;;;;;;6222343;23;20023;-95
2021/01/10 12:48:57;;;;;;;;;;;4.50;99.90;;;;;;6224894;23;20038;-95
2021/01/10 12:51:29;;;;;;;1999.90;999.90;;;4.50;99.90;;;;;;6225767;23;19920;-95
2021/01/10 12:53:59;;;;;;;1999.90;999.90;;;4.50;99.90;;;;;;6224821;23;20016;-95
2021/01/10 12:56:34;;;;;;;1999.90;999.90;;;4.50;99.90;;;;;;6223570;23;20024;-96